Time,TemperatureF,DewpointF,PressureIn,WindDirection,WindDirectionDegrees,WindSpeedMPH,WindSpeedGustMPH,Humidity,HourlyPrecipIn,Conditions,Clouds,dailyrainin,SoftwareType,DateUTC
2013-01-25 00:04:00,46.0,33.7,30.08,SW,230,10.0,10.0,62,0.00,CLR,,0.00,WeatherDisplay:10.37,2013-01-25 08:04:00,
2013-01-25 00:09:00,46.1,33.4,30.08,SSW,198,6.9,6.9,61,0.00,CLR,,0.00,WeatherDisplay:10.37,2013-01-25 08:09:00,
2013-01-25 00:14:00,46.0,33.7,30.08,SW,223,5.8,5.8,62,0.00,CLR,,0.00,WeatherDisplay:10.37,2013-01-25 08:14:00,
2013-01-25 00:19:00,45.8,33.9,30.08,WSW,244,2.3,2.3,63,0.00,CLR,,0.00,WeatherDisplay:10.37,2013-01-25 08:19:00,
2013-01-25 00:24:00,45.7,34.2,30.09,WSW,251,3.5,3.5,64,0.00,CLR,,0.00,WeatherDisplay:10.37,2013-01-25 08:24:00,
2013-01-25 00:29:00,45.2,34.1,30.09,SW,229,3.5,3.5,65,0.00,CLR,,0.00,WeatherDisplay:10.37,2013-01-25 08:29:00,
2013-01-25 00:35:00,44.8,34.2,30.09,SW,223,5.0,6.0,66,0.00,CLR,,0.00,WeatherDisplay:10.37,2013-01-25 08:35:00,
2013-01-25 00:40:00,44.3,34.0,30.09,SW,229,7.0,7.0,67,0.00,CLR,,0.00,WeatherDisplay:10.37,2013-01-25 08:40:00,
2013-01-25 00:45:00,44.1,34.2,30.09,SW,229,8.1,8.1,68,0.00,CLR,,0.00,WeatherDisplay:10.37,2013-01-25 08:45:00,
2013-01-25 00:50:00,43.8,34.3,30.09,SW,217,10.0,10.0,69,0.00,CLR,,0.00,WeatherDisplay:10.37,2013-01-25 08:50:00,
2013-01-25 00:55:00,43.5,34.0,30.09,SW,229,6.0,6.0,69,0.00,CLR,,0.00,WeatherDisplay:10.37,2013-01-25 08:55:00,
2013-01-25 01:00:00,43.2,34.4,30.09,SW,232,6.9,6.9,71,0.00,CLR,,0.00,WeatherDisplay:10.37,2013-01-25 09:00:00,
2013-01-25 01:05:00,42.9,34.5,30.09,SW,234,4.6,4.6,72,0.00,CLR,,0.00,WeatherDisplay:10.37,2013-01-25 09:05:00,
2013-01-25 01:10:00,42.8,34.7,30.09,SSW,206,6.0,6.0,73,0.00,CLR,,0.00,WeatherDisplay:10.37,2013-01-25 09:10:00,
2013-01-25 01:15:00,42.5,34.8,30.08,SSE,168,5.8,5.8,74,0.00,CLR,,0.00,WeatherDisplay:10.37,2013-01-25 09:15:00,
2013-01-25 01:20:00,42.2,35.2,30.08,SSE,147,6.9,6.9,76,0.00,CLR,,0.01,WeatherDisplay:10.37,2013-01-25 09:20:00,
2013-01-25 01:25:00,42.1,35.4,30.08,SE,141,7.0,7.0,77,0.01,RA,,0.01,WeatherDisplay:10.37,2013-01-25 09:25:00,
2013-01-25 01:30:00,42.2,35.2,30.08,South,175,5.8,5.8,76,0.01,RA,,0.01,WeatherDisplay:10.37,2013-01-25 09:30:00,
2013-01-25 01:35:00,42.5,35.1,30.08,South,176,2.3,2.3,75,0.01,CLR,,0.01,WeatherDisplay:10.37,2013-01-25 09:35:00,
2013-01-25 01:40:00,42.6,35.2,30.08,South,176,5.0,5.0,75,0.01,CLR,,0.01,WeatherDisplay:10.37,2013-01-25 09:40:00,
2013-01-25 01:45:00,42.9,35.5,30.08,South,179,3.5,3.5,75,0.01,CLR,,0.01,WeatherDisplay:10.37,2013-01-25 09:45:00,
2013-01-25 01:50:00,42.9,35.5,30.08,South,179,2.3,2.3,75,0.01,CLR,,0.01,WeatherDisplay:10.37,2013-01-25 09:50:00,
2013-01-25 01:55:00,43.1,35.4,30.08,SSW,206,5.0,5.0,74,0.01,CLR,,0.01,WeatherDisplay:10.37,2013-01-25 09:55:00,
2013-01-25 02:00:00,43.1,35.4,30.08,South,185,3.5,3.5,74,0.01,CLR,,0.01,WeatherDisplay:10.37,2013-01-25 10:00:00,
2013-01-25 02:05:00,43.1,35.0,30.08,South,179,5.0,5.0,73,0.01,CLR,,0.01,WeatherDisplay:10.37,2013-01-25 10:05:00,
2013-01-25 02:10:00,43.2,35.1,30.08,South,174,3.5,3.5,73,0.01,CLR,,0.01,WeatherDisplay:10.37,2013-01-25 10:10:00,
2013-01-25 02:15:00,43.3,34.9,30.08,South,174,2.3,0.0,72,0.01,CLR,,0.01,WeatherDisplay:10.37,2013-01-25 10:15:00,
2013-01-25 02:20:00,43.2,35.1,30.08,South,174,1.0,1.0,73,0.01,CLR,,0.01,WeatherDisplay:10.37,2013-01-25 10:20:00,
2013-01-25 02:25:00,43.2,35.1,30.08,South,174,1.0,1.0,73,0.00,CLR,,0.01,WeatherDisplay:10.37,2013-01-25 10:25:00,
2013-01-25 02:30:00,43.1,35.0,30.08,South,174,3.5,3.5,73,0.00,CLR,,0.01,WeatherDisplay:10.37,2013-01-25 10:30:00,
2013-01-25 02:35:00,42.9,34.8,30.08,SW,222,3.5,3.5,73,0.00,CLR,,0.01,WeatherDisplay:10.37,2013-01-25 10:35:00,
2013-01-25 02:40:00,42.8,34.7,30.08,WSW,237,7.0,7.0,73,0.00,CLR,,0.01,WeatherDisplay:10.37,2013-01-25 10:40:00,
2013-01-25 02:45:00,42.5,34.8,30.08,SW,236,8.0,8.0,74,0.00,CLR,,0.01,WeatherDisplay:10.37,2013-01-25 10:45:00,
2013-01-25 02:50:00,42.2,34.8,30.08,WSW,246,6.9,6.9,75,0.00,CLR,,0.01,WeatherDisplay:10.37,2013-01-25 10:50:00,
2013-01-25 02:55:00,42.1,34.7,30.08,WSW,247,6.9,6.9,75,0.00,CLR,,0.01,WeatherDisplay:10.37,2013-01-25 10:55:00,
2013-01-25 03:00:00,42.1,35.1,30.08,WSW,251,3.5,3.5,76,0.00,CLR,,0.01,WeatherDisplay:10.37,2013-01-25 11:00:00,
2013-01-25 03:05:00,41.9,34.9,30.08,WSW,251,1.0,1.0,76,0.00,CLR,,0.01,WeatherDisplay:10.37,2013-01-25 11:05:00,
2013-01-25 03:10:00,41.8,34.8,30.08,WSW,250,1.1,1.1,76,0.00,CLR,,0.01,WeatherDisplay:10.37,2013-01-25 11:10:00,
2013-01-25 03:15:00,41.6,34.6,30.08,WSW,251,1.0,1.0,76,0.00,CLR,,0.01,WeatherDisplay:10.37,2013-01-25 11:15:00,
2013-01-25 03:20:00,41.6,34.6,30.08,WSW,251,0.0,0.0,76,0.00,CLR,,0.01,WeatherDisplay:10.37,2013-01-25 11:20:00,
2013-01-25 03:25:00,41.5,34.8,30.07,WSW,251,0.0,0.0,77,0.00,CLR,,0.01,WeatherDisplay:10.37,2013-01-25 11:25:00,
2013-01-25 03:30:00,41.3,34.6,30.07,WSW,250,0.0,0.0,77,0.00,CLR,,0.01,WeatherDisplay:10.37,2013-01-25 11:30:00,
2013-01-25 03:35:00,41.2,34.5,30.07,WSW,250,0.0,0.0,77,0.00,CLR,,0.01,WeatherDisplay:10.37,2013-01-25 11:35:00,
2013-01-25 03:40:00,41.1,34.4,30.07,WSW,251,0.0,0.0,77,0.00,CLR,,0.01,WeatherDisplay:10.37,2013-01-25 11:40:00,
2013-01-25 03:45:00,41.1,34.8,30.07,WSW,250,0.0,0.0,78,0.00,CLR,,0.01,WeatherDisplay:10.37,2013-01-25 11:45:00,
2013-01-25 03:50:00,40.9,34.6,30.07,WSW,251,0.0,0.0,78,0.00,CLR,,0.01,WeatherDisplay:10.37,2013-01-25 11:50:00,
2013-01-25 03:55:00,40.5,34.2,30.06,WSW,250,1.1,0.0,78,0.00,CLR,,0.01,WeatherDisplay:10.37,2013-01-25 11:55:00,
2013-01-25 04:00:00,40.2,33.9,30.08,WSW,251,0.0,0.0,78,0.00,CLR,,0.01,WeatherDisplay:10.37,2013-01-25 12:00:00,
2013-01-25 04:05:00,39.9,33.9,30.08,SSE,167,2.3,2.3,79,0.00,CLR,,0.01,WeatherDisplay:10.37,2013-01-25 12:05:00,
2013-01-25 04:10:00,39.8,33.8,30.07,SSE,167,2.3,2.3,79,0.00,CLR,,0.01,WeatherDisplay:10.37,2013-01-25 12:10:00,
2013-01-25 04:15:00,39.8,33.8,30.07,SSE,168,2.3,0.0,79,0.00,CLR,,0.01,WeatherDisplay:10.37,2013-01-25 12:15:00,
2013-01-25 04:20:00,39.8,33.8,30.07,SSE,168,2.3,2.3,79,0.00,CLR,,0.01,WeatherDisplay:10.37,2013-01-25 12:20:00,
2013-01-25 04:25:00,39.8,33.8,30.07,SSE,167,3.0,3.0,79,0.00,CLR,,0.01,WeatherDisplay:10.37,2013-01-25 12:25:00,
2013-01-25 04:30:00,39.9,33.9,30.07,SSE,167,1.1,1.1,79,0.00,CLR,,0.01,WeatherDisplay:10.37,2013-01-25 12:30:00,
2013-01-25 04:35:00,39.9,33.9,30.08,SSE,167,0.0,0.0,79,0.00,CLR,,0.01,WeatherDisplay:10.37,2013-01-25 12:35:00,
2013-01-25 04:40:00,39.8,34.1,30.08,SSE,167,2.0,2.0,80,0.00,CLR,,0.01,WeatherDisplay:10.37,2013-01-25 12:40:00,
2013-01-25 04:45:00,39.8,33.8,30.08,South,185,3.5,3.5,79,0.00,CLR,,0.01,WeatherDisplay:10.37,2013-01-25 12:45:00,
2013-01-25 04:50:00,39.6,33.9,30.07,South,185,2.3,0.0,80,0.00,CLR,,0.01,WeatherDisplay:10.37,2013-01-25 12:50:00,
2013-01-25 04:55:00,39.8,34.1,30.07,South,185,0.0,0.0,80,0.00,CLR,,0.01,WeatherDisplay:10.37,2013-01-25 12:55:00,
2013-01-25 05:00:00,39.6,33.6,30.08,South,185,2.3,2.3,79,0.00,CLR,,0.01,WeatherDisplay:10.37,2013-01-25 13:00:00,
2013-01-25 05:05:00,39.5,33.8,30.08,South,185,2.3,2.3,80,0.00,CLR,,0.01,WeatherDisplay:10.37,2013-01-25 13:05:00,
2013-01-25 05:10:00,39.5,33.8,30.08,South,185,0.0,0.0,80,0.00,CLR,,0.01,WeatherDisplay:10.37,2013-01-25 13:10:00,
2013-01-25 05:15:00,39.3,33.6,30.08,South,185,2.3,2.3,80,0.00,CLR,,0.01,WeatherDisplay:10.37,2013-01-25 13:15:00,
2013-01-25 05:20:00,39.1,33.5,30.08,ENE,64,3.5,3.5,80,0.00,CLR,,0.01,WeatherDisplay:10.37,2013-01-25 13:20:00,
2013-01-25 05:25:00,38.9,33.6,30.08,ENE,65,1.1,0.0,81,0.00,CLR,,0.01,WeatherDisplay:10.37,2013-01-25 13:25:00,
2013-01-25 05:30:00,38.9,33.6,30.08,ENE,64,1.1,0.0,81,0.00,CLR,,0.01,WeatherDisplay:10.37,2013-01-25 13:30:00,
2013-01-25 05:35:00,38.8,33.8,30.08,ENE,64,2.3,2.3,82,0.00,CLR,,0.01,WeatherDisplay:10.37,2013-01-25 13:35:00,
2013-01-25 05:40:00,38.6,33.6,30.08,ENE,64,1.0,1.0,82,0.00,CLR,,0.01,WeatherDisplay:10.37,2013-01-25 13:40:00,
2013-01-25 05:45:00,38.6,33.9,30.07,ENE,65,2.3,2.3,83,0.00,CLR,,0.01,WeatherDisplay:10.37,2013-01-25 13:45:00,
2013-01-25 05:50:00,38.5,33.8,30.07,ENE,65,2.3,2.3,83,0.00,CLR,,0.01,WeatherDisplay:10.37,2013-01-25 13:50:00,
2013-01-25 05:55:00,38.5,33.8,30.07,ENE,64,0.0,0.0,83,0.00,CLR,,0.01,WeatherDisplay:10.37,2013-01-25 13:55:00,
2013-01-25 06:00:00,38.5,33.8,30.07,ENE,64,0.0,0.0,83,0.00,CLR,,0.01,WeatherDisplay:10.37,2013-01-25 14:00:00,
2013-01-25 06:05:00,38.5,34.1,30.07,ENE,64,2.3,2.3,84,0.00,CLR,,0.01,WeatherDisplay:10.37,2013-01-25 14:05:00,
2013-01-25 06:10:00,38.5,33.8,30.07,ENE,65,2.0,2.0,83,0.00,CLR,,0.01,WeatherDisplay:10.37,2013-01-25 14:10:00,
2013-01-25 06:15:00,38.6,33.9,30.07,SW,226,5.0,5.0,83,0.00,CLR,,0.01,WeatherDisplay:10.37,2013-01-25 14:15:00,
2013-01-25 06:20:00,38.8,34.1,30.07,SW,224,2.3,2.3,83,0.00,CLR,,0.01,WeatherDisplay:10.37,2013-01-25 14:20:00,
2013-01-25 06:25:00,39.1,34.4,30.07,SSW,208,2.3,2.3,83,0.00,CLR,,0.01,WeatherDisplay:10.37,2013-01-25 14:25:00,
2013-01-25 06:30:00,39.2,34.2,30.07,SSW,208,2.3,0.0,82,0.00,CLR,,0.01,WeatherDisplay:10.37,2013-01-25 14:30:00,
2013-01-25 06:35:00,39.1,34.1,30.07,SSW,209,3.5,3.5,82,0.00,CLR,,0.01,WeatherDisplay:10.37,2013-01-25 14:35:00,
2013-01-25 06:40:00,39.1,34.1,30.07,SSW,209,1.1,1.1,82,0.00,CLR,,0.01,WeatherDisplay:10.37,2013-01-25 14:40:00,
2013-01-25 06:45:00,39.1,34.1,30.07,SSW,209,1.1,1.1,82,0.00,CLR,,0.01,WeatherDisplay:10.37,2013-01-25 14:45:00,
2013-01-25 06:50:00,39.1,33.8,30.07,SSW,209,1.0,1.0,81,0.00,CLR,,0.01,WeatherDisplay:10.37,2013-01-25 14:50:00,
2013-01-25 06:55:00,39.1,33.8,30.07,SSW,209,1.0,1.0,81,0.00,CLR,,0.01,WeatherDisplay:10.37,2013-01-25 14:55:00,
2013-01-25 07:01:00,39.2,33.5,30.07,SSW,209,1.1,1.1,80,0.00,CLR,,0.01,WeatherDisplay:10.37,2013-01-25 15:01:00,
2013-01-25 07:06:00,39.2,33.5,30.07,SSW,209,0.0,0.0,80,0.00,CLR,,0.01,WeatherDisplay:10.37,2013-01-25 15:06:00,
2013-01-25 07:11:00,39.1,33.8,30.07,SSW,210,0.0,0.0,81,0.00,CLR,,0.01,WeatherDisplay:10.37,2013-01-25 15:11:00,
2013-01-25 07:16:00,39.2,33.9,30.07,SSW,205,0.0,0.0,81,0.00,CLR,,0.01,WeatherDisplay:10.37,2013-01-25 15:16:00,
2013-01-25 07:22:00,39.2,33.9,30.07,SSW,205,0.0,0.0,81,0.00,CLR,,0.01,WeatherDisplay:10.37,2013-01-25 15:22:00,
2013-01-25 07:27:00,39.2,33.9,30.07,SSW,205,2.3,0.0,81,0.00,CLR,,0.01,WeatherDisplay:10.37,2013-01-25 15:27:00,
2013-01-25 07:32:00,39.2,34.2,30.07,SSW,206,0.0,0.0,82,0.00,CLR,,0.01,WeatherDisplay:10.37,2013-01-25 15:32:00,
2013-01-25 07:37:00,39.2,34.5,30.07,SSW,205,0.0,0.0,83,0.00,CLR,,0.01,WeatherDisplay:10.37,2013-01-25 15:37:00,
2013-01-25 07:42:00,39.1,34.4,30.08,ENE,78,3.5,3.5,83,0.00,CLR,,0.01,WeatherDisplay:10.37,2013-01-25 15:42:00,
2013-01-25 07:47:00,38.9,34.2,30.08,ENE,78,3.0,3.0,83,0.00,CLR,,0.01,WeatherDisplay:10.37,2013-01-25 15:47:00,
2013-01-25 07:52:00,38.9,34.5,30.08,ENE,78,0.0,0.0,84,0.01,RA,,0.02,WeatherDisplay:10.37,2013-01-25 15:52:00,
2013-01-25 07:57:00,38.9,34.8,30.08,ENE,78,0.0,0.0,85,0.01,RA,,0.02,WeatherDisplay:10.37,2013-01-25 15:57:00,
2013-01-25 08:02:00,39.1,35.0,30.08,ENE,78,0.0,0.0,85,0.01,CLR,,0.02,WeatherDisplay:10.37,2013-01-25 16:02:00,
2013-01-25 08:08:00,39.1,35.0,30.08,ENE,78,0.0,0.0,85,0.01,CLR,,0.02,WeatherDisplay:10.37,2013-01-25 16:08:00,
2013-01-25 08:13:00,38.9,34.8,30.08,ENE,78,0.0,0.0,85,0.01,CLR,,0.02,WeatherDisplay:10.37,2013-01-25 16:13:00,
2013-01-25 08:18:00,38.8,35.0,30.08,ENE,78,2.3,0.0,86,0.01,CLR,,0.02,WeatherDisplay:10.37,2013-01-25 16:18:00,
2013-01-25 08:23:00,39.1,35.3,30.08,ENE,78,0.0,0.0,86,0.01,CLR,,0.02,WeatherDisplay:10.37,2013-01-25 16:23:00,
2013-01-25 08:29:00,39.1,35.3,30.08,ENE,78,0.0,0.0,86,0.01,CLR,,0.02,WeatherDisplay:10.37,2013-01-25 16:29:00,
2013-01-25 08:34:00,39.1,35.3,30.08,ENE,78,0.0,0.0,86,0.01,CLR,,0.02,WeatherDisplay:10.37,2013-01-25 16:34:00,
2013-01-25 08:39:00,39.2,35.4,30.08,ENE,78,2.3,2.3,86,0.01,CLR,,0.02,WeatherDisplay:10.37,2013-01-25 16:39:00,
2013-01-25 08:45:00,39.3,35.5,30.08,ENE,78,0.0,2.0,86,0.00,CLR,,0.02,WeatherDisplay:10.37,2013-01-25 16:45:00,
2013-01-25 08:50:00,39.6,36.0,30.07,ENE,78,2.3,0.0,87,0.00,CLR,,0.02,WeatherDisplay:10.37,2013-01-25 16:50:00,
2013-01-25 08:55:00,39.9,36.3,30.07,ENE,78,1.1,1.1,87,0.00,CLR,,0.02,WeatherDisplay:10.37,2013-01-25 16:55:00,
2013-01-25 09:01:00,40.3,36.4,30.07,ENE,78,2.3,2.3,86,0.00,CLR,,0.02,WeatherDisplay:10.37,2013-01-25 17:01:00,
2013-01-25 09:06:00,40.6,36.7,30.07,ENE,78,0.0,0.0,86,0.00,CLR,,0.02,WeatherDisplay:10.37,2013-01-25 17:06:00,
2013-01-25 09:11:00,40.8,36.9,30.07,ENE,78,0.0,0.0,86,0.00,CLR,,0.02,WeatherDisplay:10.37,2013-01-25 17:11:00,
2013-01-25 09:16:00,40.8,36.9,30.07,ENE,78,0.0,0.0,86,0.00,CLR,,0.02,WeatherDisplay:10.37,2013-01-25 17:16:00,
2013-01-25 09:21:00,40.8,36.9,30.07,ENE,78,0.0,0.0,86,0.00,CLR,,0.02,WeatherDisplay:10.37,2013-01-25 17:21:00,
2013-01-25 09:26:00,40.6,36.7,30.07,ENE,78,0.0,0.0,86,0.00,CLR,,0.02,WeatherDisplay:10.37,2013-01-25 17:26:00,
2013-01-25 09:31:00,40.6,36.7,30.07,ENE,78,2.3,2.3,86,0.00,CLR,,0.02,WeatherDisplay:10.37,2013-01-25 17:31:00,
2013-01-25 09:36:00,40.6,37.0,30.06,East,100,3.5,3.5,87,0.00,CLR,,0.02,WeatherDisplay:10.37,2013-01-25 17:36:00,
2013-01-25 09:41:00,40.5,36.9,30.06,ESE,103,2.3,2.3,87,0.00,CLR,,0.02,WeatherDisplay:10.37,2013-01-25 17:41:00,
2013-01-25 09:46:00,40.6,37.0,30.06,ESE,102,1.1,0.0,87,0.00,CLR,,0.02,WeatherDisplay:10.37,2013-01-25 17:46:00,
2013-01-25 09:52:00,40.6,37.0,30.06,ESE,116,3.5,3.5,87,0.00,CLR,,0.02,WeatherDisplay:10.37,2013-01-25 17:52:00,
2013-01-25 09:57:00,40.6,37.0,30.06,ESE,116,0.0,0.0,87,0.00,CLR,,0.02,WeatherDisplay:10.37,2013-01-25 17:57:00,
2013-01-25 10:02:00,40.6,37.0,30.07,ESE,116,0.0,0.0,87,0.00,CLR,,0.02,WeatherDisplay:10.37,2013-01-25 18:02:00,
2013-01-25 10:07:00,40.6,36.7,30.06,ESE,116,2.3,2.3,86,0.00,CLR,,0.02,WeatherDisplay:10.37,2013-01-25 18:07:00,
2013-01-25 10:12:00,40.8,36.9,30.06,ESE,116,1.1,1.1,86,0.00,CLR,,0.02,WeatherDisplay:10.37,2013-01-25 18:12:00,
2013-01-25 10:17:00,40.8,36.9,30.06,ESE,116,0.0,0.0,86,0.00,CLR,,0.02,WeatherDisplay:10.37,2013-01-25 18:17:00,
2013-01-25 10:22:00,40.8,36.9,30.06,ESE,116,1.1,1.1,86,0.00,CLR,,0.02,WeatherDisplay:10.37,2013-01-25 18:22:00,
2013-01-25 10:27:00,40.8,36.9,30.06,ESE,116,0.0,0.0,86,0.00,CLR,,0.02,WeatherDisplay:10.37,2013-01-25 18:27:00,
2013-01-25 10:32:00,40.8,36.9,30.07,ESE,114,2.3,2.3,86,0.00,CLR,,0.02,WeatherDisplay:10.37,2013-01-25 18:32:00,
2013-01-25 10:37:00,40.8,36.9,30.07,ESE,114,0.0,0.0,86,0.00,CLR,,0.02,WeatherDisplay:10.37,2013-01-25 18:37:00,
2013-01-25 10:42:00,40.8,36.9,30.06,ESE,114,4.0,4.0,86,0.00,CLR,,0.02,WeatherDisplay:10.37,2013-01-25 18:42:00,
2013-01-25 10:47:00,40.8,37.2,30.05,ESE,113,3.5,3.5,87,0.00,CLR,,0.02,WeatherDisplay:10.37,2013-01-25 18:47:00,
2013-01-25 10:52:00,41.1,37.5,30.05,ESE,113,2.3,2.3,87,0.00,CLR,,0.02,WeatherDisplay:10.37,2013-01-25 18:52:00,
2013-01-25 10:57:00,41.5,37.9,30.05,ESE,113,3.5,3.5,87,0.00,CLR,,0.02,WeatherDisplay:10.37,2013-01-25 18:57:00,
2013-01-25 11:02:00,42.2,38.3,30.02,ESE,110,5.8,5.8,86,0.00,CLR,,0.02,WeatherDisplay:10.37,2013-01-25 19:02:00,
2013-01-25 11:07:00,42.6,38.4,30.02,East,97,6.0,6.0,85,0.00,CLR,,0.02,WeatherDisplay:10.37,2013-01-25 19:07:00,
2013-01-25 11:12:00,42.9,38.4,30.02,SE,131,3.5,3.5,84,0.00,CLR,,0.02,WeatherDisplay:10.37,2013-01-25 19:12:00,
2013-01-25 11:17:00,43.1,38.3,30.02,SE,131,2.3,2.3,83,0.00,CLR,,0.02,WeatherDisplay:10.37,2013-01-25 19:17:00,
2013-01-25 11:22:00,43.3,38.2,30.03,SE,131,3.0,3.0,82,0.00,CLR,,0.02,WeatherDisplay:10.37,2013-01-25 19:22:00,
2013-01-25 11:28:00,43.3,37.9,30.03,NNW,347,4.0,4.0,81,0.00,CLR,,0.02,WeatherDisplay:10.37,2013-01-25 19:28:00,
2013-01-25 11:33:00,43.3,38.2,30.03,North,3,5.8,5.8,82,0.00,CLR,,0.02,WeatherDisplay:10.37,2013-01-25 19:33:00,
2013-01-25 11:38:00,43.3,38.2,30.03,North,3,2.0,2.0,82,0.00,CLR,,0.02,WeatherDisplay:10.37,2013-01-25 19:38:00,
2013-01-25 11:44:00,43.3,38.2,30.02,North,3,1.0,0.0,82,0.00,CLR,,0.02,WeatherDisplay:10.37,2013-01-25 19:44:00,
2013-01-25 11:49:00,43.6,37.8,30.02,South,169,6.9,6.9,80,0.00,CLR,,0.02,WeatherDisplay:10.37,2013-01-25 19:49:00,
2013-01-25 11:54:00,44.1,37.7,30.01,SSW,210,8.1,8.1,78,0.00,CLR,,0.02,WeatherDisplay:10.37,2013-01-25 19:54:00,
2013-01-25 11:59:00,44.8,37.7,30.01,SSW,203,7.0,7.0,76,0.00,CLR,,0.02,WeatherDisplay:10.37,2013-01-25 19:59:00,
2013-01-25 12:04:00,45.4,37.6,30.01,SW,230,6.9,6.9,74,0.00,CLR,,0.02,WeatherDisplay:10.37,2013-01-25 20:04:00,
2013-01-25 12:09:00,45.7,37.2,30.01,SSE,162,11.5,11.5,72,0.00,CLR,,0.02,WeatherDisplay:10.37,2013-01-25 20:09:00,
2013-01-25 12:14:00,46.0,36.8,30.01,SSW,196,15.0,15.0,70,0.00,CLR,,0.02,WeatherDisplay:10.37,2013-01-25 20:14:00,
2013-01-25 12:19:00,46.1,36.9,30.01,South,185,11.5,11.5,70,0.00,CLR,,0.02,WeatherDisplay:10.37,2013-01-25 20:19:00,
2013-01-25 12:24:00,46.1,36.5,30.01,WSW,244,13.8,13.8,69,0.00,CLR,,0.02,WeatherDisplay:10.37,2013-01-25 20:24:00,
2013-01-25 12:29:00,46.1,36.9,30.01,WSW,246,17.3,17.3,70,0.00,CLR,,0.02,WeatherDisplay:10.37,2013-01-25 20:29:00,
2013-01-25 12:34:00,45.8,36.9,30.01,WSW,239,19.6,19.6,71,0.01,RA,,0.03,WeatherDisplay:10.37,2013-01-25 20:34:00,
2013-01-25 12:39:00,45.7,36.8,30.01,SSW,210,20.0,20.0,71,0.01,RA,,0.03,WeatherDisplay:10.37,2013-01-25 20:39:00,
2013-01-25 12:44:00,45.5,36.6,30.01,SW,223,20.7,20.7,71,0.01,,,0.03,WeatherDisplay:10.37,2013-01-25 20:44:00,
2013-01-25 12:49:00,45.4,36.5,30.01,WSW,241,26.5,26.5,71,0.01,CLR,,0.03,WeatherDisplay:10.37,2013-01-25 20:49:00,
2013-01-25 12:54:00,45.4,36.5,30.01,SSW,193,18.0,18.0,71,0.01,CLR,,0.03,WeatherDisplay:10.37,2013-01-25 20:54:00,
2013-01-25 12:59:00,45.2,36.4,30.00,SSW,206,14.0,14.0,71,0.01,CLR,,0.03,WeatherDisplay:10.37,2013-01-25 20:59:00,
2013-01-25 13:04:00,45.2,36.4,30.00,SW,229,19.6,19.6,71,0.01,CLR,,0.03,WeatherDisplay:10.37,2013-01-25 21:04:00,
2013-01-25 13:09:00,45.1,36.3,30.00,South,176,18.4,18.4,71,0.01,CLR,,0.03,WeatherDisplay:10.37,2013-01-25 21:09:00,
2013-01-25 13:14:00,45.2,36.4,29.99,SSE,162,16.1,16.1,71,0.01,CLR,,0.03,WeatherDisplay:10.37,2013-01-25 21:14:00,
2013-01-25 13:19:00,45.2,36.0,29.99,SSW,202,17.3,17.3,70,0.01,CLR,,0.03,WeatherDisplay:10.37,2013-01-25 21:19:00,
2013-01-25 13:24:00,45.4,36.2,29.98,SSW,210,19.6,19.6,70,0.01,CLR,,0.03,WeatherDisplay:10.37,2013-01-25 21:24:00,
2013-01-25 13:29:00,45.4,35.5,29.98,SSW,206,20.0,20.0,68,0.01,CLR,,0.03,WeatherDisplay:10.37,2013-01-25 21:29:00,
2013-01-25 13:34:00,45.4,35.5,29.98,SSW,212,17.3,17.3,68,0.00,CLR,,0.03,WeatherDisplay:10.37,2013-01-25 21:34:00,
2013-01-25 13:39:00,45.5,35.9,29.98,SW,222,6.9,6.9,69,0.00,CLR,,0.03,WeatherDisplay:10.37,2013-01-25 21:39:00,
2013-01-25 13:44:00,45.7,35.7,29.98,SSW,193,12.7,12.7,68,0.00,CLR,,0.03,WeatherDisplay:10.37,2013-01-25 21:44:00,
2013-01-25 13:49:00,46.0,36.0,29.97,South,184,12.7,12.7,68,0.00,CLR,,0.03,WeatherDisplay:10.37,2013-01-25 21:49:00,
2013-01-25 13:54:00,46.4,36.4,29.97,SW,220,18.4,18.4,68,0.00,CLR,,0.03,WeatherDisplay:10.37,2013-01-25 21:54:00,
2013-01-25 13:59:00,46.4,35.7,29.97,South,189,17.3,17.3,66,0.00,CLR,,0.03,WeatherDisplay:10.37,2013-01-25 21:59:00,
2013-01-25 14:04:00,46.4,35.7,29.97,SSW,209,17.3,17.3,66,0.00,CLR,,0.03,WeatherDisplay:10.37,2013-01-25 22:04:00,
2013-01-25 14:09:00,46.4,35.7,29.97,South,189,17.3,17.3,66,0.00,CLR,,0.03,WeatherDisplay:10.37,2013-01-25 22:09:00,
2013-01-25 14:14:00,46.2,35.1,29.96,South,176,19.6,19.6,65,0.00,CLR,,0.03,WeatherDisplay:10.37,2013-01-25 22:14:00,
2013-01-25 14:19:00,46.2,35.5,29.96,SSW,208,18.4,18.4,66,0.00,CLR,,0.03,WeatherDisplay:10.37,2013-01-25 22:19:00,
2013-01-25 14:24:00,46.2,35.1,29.96,SSW,203,17.3,17.3,65,0.00,CLR,,0.03,WeatherDisplay:10.37,2013-01-25 22:24:00,
2013-01-25 14:29:00,46.4,35.3,29.96,SSW,200,16.1,16.1,65,0.00,CLR,,0.03,WeatherDisplay:10.37,2013-01-25 22:29:00,
2013-01-25 14:34:00,46.2,35.1,29.96,South,186,17.3,17.3,65,0.00,CLR,,0.03,WeatherDisplay:10.37,2013-01-25 22:34:00,
2013-01-25 14:39:00,46.4,35.3,29.96,SSW,199,19.6,19.6,65,0.00,CLR,,0.03,WeatherDisplay:10.37,2013-01-25 22:39:00,
2013-01-25 14:44:00,46.8,35.6,29.95,SSW,213,19.6,19.6,65,0.00,CLR,,0.03,WeatherDisplay:10.37,2013-01-25 22:44:00,
2013-01-25 14:49:00,46.5,35.4,29.95,SSW,192,16.1,16.1,65,0.00,CLR,,0.03,WeatherDisplay:10.37,2013-01-25 22:49:00,
2013-01-25 14:54:00,46.4,35.3,29.95,South,175,20.0,20.0,65,0.00,CLR,,0.03,WeatherDisplay:10.37,2013-01-25 22:54:00,
2013-01-25 14:59:00,46.4,35.3,29.95,WSW,237,18.4,18.4,65,0.00,CLR,,0.03,WeatherDisplay:10.37,2013-01-25 22:59:00,
2013-01-25 15:04:00,46.4,35.3,29.96,SW,215,12.7,12.7,65,0.00,CLR,,0.03,WeatherDisplay:10.37,2013-01-25 23:04:00,
2013-01-25 15:09:00,46.4,35.3,29.96,SSW,198,17.3,17.3,65,0.00,CLR,,0.03,WeatherDisplay:10.37,2013-01-25 23:09:00,
2013-01-25 15:14:00,46.4,35.3,29.95,SW,224,16.1,16.1,65,0.00,CLR,,0.03,WeatherDisplay:10.37,2013-01-25 23:14:00,
2013-01-25 15:19:00,46.4,34.9,29.95,South,179,13.8,13.8,64,0.00,CLR,,0.03,WeatherDisplay:10.37,2013-01-25 23:19:00,
2013-01-25 15:24:00,46.4,35.3,29.95,SSW,205,9.2,9.2,65,0.00,CLR,,0.03,WeatherDisplay:10.37,2013-01-25 23:24:00,
2013-01-25 15:29:00,46.2,35.1,29.95,SW,230,11.5,11.5,65,0.00,CLR,,0.03,WeatherDisplay:10.37,2013-01-25 23:29:00,
2013-01-25 15:34:00,46.2,34.7,29.95,South,189,16.0,16.0,64,0.00,CLR,,0.03,WeatherDisplay:10.37,2013-01-25 23:34:00,
2013-01-25 15:39:00,46.2,35.1,29.95,South,172,13.0,13.0,65,0.00,CLR,,0.03,WeatherDisplay:10.37,2013-01-25 23:39:00,
2013-01-25 15:44:00,46.2,35.1,29.94,SSW,203,11.5,11.5,65,0.00,CLR,,0.03,WeatherDisplay:10.37,2013-01-25 23:44:00,
2013-01-25 15:49:00,46.2,35.1,29.94,SSW,200,7.0,7.0,65,0.00,CLR,,0.03,WeatherDisplay:10.37,2013-01-25 23:49:00,
2013-01-25 15:54:00,46.2,35.1,29.94,SW,217,12.0,12.0,65,0.00,CLR,,0.03,WeatherDisplay:10.37,2013-01-25 23:54:00,
2013-01-25 15:59:00,46.2,35.1,29.94,South,181,10.4,10.4,65,0.00,CLR,,0.03,WeatherDisplay:10.37,2013-01-25 23:59:00,
2013-01-25 16:04:00,46.2,35.1,29.94,SSW,209,9.2,9.2,65,0.00,CLR,,0.03,WeatherDisplay:10.37,2013-01-26 00:04:00,
2013-01-25 16:09:00,46.2,35.1,29.93,SSE,167,6.9,6.9,65,0.00,CLR,,0.03,WeatherDisplay:10.37,2013-01-26 00:09:00,
2013-01-25 16:14:00,46.2,35.1,29.93,SW,215,10.4,10.4,65,0.00,CLR,,0.03,WeatherDisplay:10.37,2013-01-26 00:14:00,
2013-01-25 16:19:00,46.2,35.1,29.93,SW,219,11.5,11.5,65,0.00,CLR,,0.03,WeatherDisplay:10.37,2013-01-26 00:19:00,
2013-01-25 16:24:00,46.2,35.1,29.93,SSW,198,8.1,8.1,65,0.00,CLR,,0.03,WeatherDisplay:10.37,2013-01-26 00:24:00,
2013-01-25 16:29:00,46.1,35.0,29.93,SW,224,10.4,10.4,65,0.00,CLR,,0.03,WeatherDisplay:10.37,2013-01-26 00:29:00,
2013-01-25 16:34:00,46.4,35.3,29.93,SSW,213,6.9,6.9,65,0.00,CLR,,0.03,WeatherDisplay:10.37,2013-01-26 00:34:00,
2013-01-25 16:39:00,46.2,35.1,29.92,SW,229,6.9,6.9,65,0.00,CLR,,0.03,WeatherDisplay:10.37,2013-01-26 00:39:00,
2013-01-25 16:44:00,46.0,34.9,29.92,SSW,195,6.0,6.0,65,0.00,CLR,,0.03,WeatherDisplay:10.37,2013-01-26 00:44:00,
2013-01-25 16:49:00,46.0,34.9,29.92,South,178,11.5,11.5,65,0.00,CLR,,0.03,WeatherDisplay:10.37,2013-01-26 00:49:00,
2013-01-25 16:54:00,45.8,34.7,29.92,South,191,9.2,9.2,65,0.00,CLR,,0.03,WeatherDisplay:10.37,2013-01-26 00:54:00,
2013-01-25 16:59:00,45.7,35.0,29.92,SSW,199,13.0,13.0,66,0.00,CLR,,0.03,WeatherDisplay:10.37,2013-01-26 00:59:00,
2013-01-25 17:04:00,45.8,34.7,29.92,SSW,200,16.1,16.1,65,0.00,CLR,,0.03,WeatherDisplay:10.37,2013-01-26 01:04:00,
2013-01-25 17:09:00,45.8,34.7,29.92,SW,227,7.0,7.0,65,0.00,CLR,,0.03,WeatherDisplay:10.37,2013-01-26 01:09:00,
2013-01-25 17:14:00,45.8,34.7,29.93,South,189,8.1,8.1,65,0.00,CLR,,0.03,WeatherDisplay:10.37,2013-01-26 01:14:00,
2013-01-25 17:19:00,45.8,34.7,29.93,SSE,162,9.2,9.2,65,0.00,CLR,,0.03,WeatherDisplay:10.37,2013-01-26 01:19:00,
2013-01-25 17:24:00,45.7,35.0,29.92,South,191,6.9,6.9,66,0.00,CLR,,0.03,WeatherDisplay:10.37,2013-01-26 01:24:00,
2013-01-25 17:29:00,45.5,34.8,29.92,SW,222,6.9,6.9,66,0.00,CLR,,0.03,WeatherDisplay:10.37,2013-01-26 01:29:00,
2013-01-25 17:34:00,45.4,34.7,29.92,South,191,7.0,7.0,66,0.00,CLR,,0.03,WeatherDisplay:10.37,2013-01-26 01:34:00,
2013-01-25 17:39:00,45.2,34.9,29.92,South,175,1.1,1.1,67,0.00,CLR,,0.03,WeatherDisplay:10.37,2013-01-26 01:39:00,
2013-01-25 17:44:00,45.1,34.8,29.93,South,178,3.5,3.5,67,0.00,CLR,,0.03,WeatherDisplay:10.37,2013-01-26 01:44:00,
2013-01-25 17:49:00,44.8,34.5,29.93,SSE,158,3.5,0.0,67,0.00,CLR,,0.03,WeatherDisplay:10.37,2013-01-26 01:49:00,
2013-01-25 17:54:00,44.8,34.5,29.93,SSE,160,5.8,5.8,67,0.00,CLR,,0.03,WeatherDisplay:10.37,2013-01-26 01:54:00,
2013-01-25 17:59:00,44.6,34.7,29.93,SE,145,4.0,4.0,68,0.00,CLR,,0.03,WeatherDisplay:10.37,2013-01-26 01:59:00,
2013-01-25 18:04:00,44.6,34.7,29.92,SSE,155,4.6,4.6,68,0.00,CLR,,0.03,WeatherDisplay:10.37,2013-01-26 02:04:00,
2013-01-25 18:09:00,44.6,34.7,29.92,SSE,157,6.9,6.9,68,0.00,CLR,,0.03,WeatherDisplay:10.37,2013-01-26 02:09:00,
2013-01-25 18:14:00,44.5,35.0,29.92,SSE,160,3.5,3.5,69,0.00,CLR,,0.03,WeatherDisplay:10.37,2013-01-26 02:14:00,
2013-01-25 18:19:00,44.2,34.7,29.93,SSE,160,2.3,2.3,69,0.00,CLR,,0.03,WeatherDisplay:10.37,2013-01-26 02:19:00,
2013-01-25 18:24:00,44.1,34.9,29.93,SSE,161,4.0,4.0,70,0.00,CLR,,0.03,WeatherDisplay:10.37,2013-01-26 02:24:00,
2013-01-25 18:29:00,44.1,34.9,29.93,SSE,155,3.5,3.5,70,0.00,CLR,,0.03,WeatherDisplay:10.37,2013-01-26 02:29:00,
2013-01-25 18:34:00,44.1,34.9,29.93,SSW,196,4.6,4.6,70,0.00,CLR,,0.03,WeatherDisplay:10.37,2013-01-26 02:34:00,
2013-01-25 18:39:00,43.9,34.7,29.93,South,178,3.5,3.5,70,0.00,CLR,,0.03,WeatherDisplay:10.37,2013-01-26 02:39:00,
2013-01-25 18:44:00,43.9,34.7,29.92,South,174,3.5,3.5,70,0.00,CLR,,0.03,WeatherDisplay:10.37,2013-01-26 02:44:00,
2013-01-25 18:49:00,43.8,34.6,29.92,South,174,2.3,2.3,70,0.00,CLR,,0.03,WeatherDisplay:10.37,2013-01-26 02:49:00,
2013-01-25 18:54:00,43.5,34.7,29.92,WSW,240,5.0,5.0,71,0.00,CLR,,0.03,WeatherDisplay:10.37,2013-01-26 02:54:00,
2013-01-25 18:59:00,42.9,34.1,29.92,WSW,237,0.0,0.0,71,0.00,CLR,,0.03,WeatherDisplay:10.37,2013-01-26 02:59:00,
2013-01-25 19:04:00,42.8,34.0,29.91,SSE,151,5.8,5.8,71,0.00,CLR,,0.03,WeatherDisplay:10.37,2013-01-26 03:04:00,
2013-01-25 19:09:00,42.6,33.9,29.91,SSE,151,2.3,0.0,71,0.00,CLR,,0.03,WeatherDisplay:10.37,2013-01-26 03:09:00,
2013-01-25 19:14:00,42.3,33.9,29.92,SSE,151,1.1,0.0,72,0.00,CLR,,0.03,WeatherDisplay:10.37,2013-01-26 03:14:00,
2013-01-25 19:19:00,42.2,33.8,29.92,SSE,151,0.0,0.0,72,0.00,CLR,,0.03,WeatherDisplay:10.37,2013-01-26 03:19:00,
2013-01-25 19:24:00,42.1,34.1,29.92,SSE,151,2.3,2.3,73,0.00,CLR,,0.03,WeatherDisplay:10.37,2013-01-26 03:24:00,
2013-01-25 19:29:00,41.9,33.5,29.92,SSE,152,2.0,2.0,72,0.00,CLR,,0.03,WeatherDisplay:10.37,2013-01-26 03:29:00,
2013-01-25 19:34:00,41.8,33.8,29.92,SSE,152,2.3,2.3,73,0.00,CLR,,0.03,WeatherDisplay:10.37,2013-01-26 03:34:00,
2013-01-25 19:39:00,41.6,33.6,29.92,WSW,248,3.5,3.5,73,0.00,CLR,,0.03,WeatherDisplay:10.37,2013-01-26 03:39:00,
2013-01-25 19:45:00,40.9,33.3,29.92,WSW,251,0.0,3.0,74,0.00,CLR,,0.03,WeatherDisplay:10.37,2013-01-26 03:45:00,
2013-01-25 19:50:00,40.6,33.3,29.92,WSW,246,3.5,3.5,75,0.00,CLR,,0.03,WeatherDisplay:10.37,2013-01-26 03:50:00,
2013-01-25 19:55:00,40.6,33.6,29.92,SW,219,3.5,3.5,76,0.00,CLR,,0.03,WeatherDisplay:10.37,2013-01-26 03:55:00,
2013-01-25 20:00:00,40.8,33.8,29.92,SW,220,4.6,4.6,76,0.00,CLR,,0.03,WeatherDisplay:10.37,2013-01-26 04:00:00,
2013-01-25 20:05:00,41.2,33.9,29.92,SW,224,4.6,4.6,75,0.00,CLR,,0.03,WeatherDisplay:10.37,2013-01-26 04:05:00,
2013-01-25 20:10:00,41.5,34.2,29.91,SW,227,3.0,3.0,75,0.00,CLR,,0.03,WeatherDisplay:10.37,2013-01-26 04:10:00,
2013-01-25 20:15:00,41.5,34.2,29.90,SW,222,1.1,0.0,75,0.00,CLR,,0.03,WeatherDisplay:10.37,2013-01-26 04:15:00,
2013-01-25 20:20:00,41.5,34.2,29.91,SW,222,1.1,0.0,75,0.00,CLR,,0.03,WeatherDisplay:10.37,2013-01-26 04:20:00,
2013-01-25 20:25:00,41.5,34.5,29.90,SW,222,2.0,2.0,76,0.00,CLR,,0.03,WeatherDisplay:10.37,2013-01-26 04:25:00,
2013-01-25 20:30:00,41.8,34.5,29.91,SW,222,3.5,0.0,75,0.00,CLR,,0.03,WeatherDisplay:10.37,2013-01-26 04:30:00,
2013-01-25 20:35:00,41.9,34.6,29.91,SW,220,3.5,3.5,75,0.00,CLR,,0.03,WeatherDisplay:10.37,2013-01-26 04:35:00,
2013-01-25 20:40:00,41.9,34.6,29.90,WSW,240,3.0,3.0,75,0.00,CLR,,0.03,WeatherDisplay:10.37,2013-01-26 04:40:00,
2013-01-25 20:45:00,42.2,34.5,29.90,WSW,240,2.3,2.3,74,0.00,CLR,,0.03,WeatherDisplay:10.37,2013-01-26 04:45:00,
2013-01-25 20:50:00,42.2,34.5,29.91,WSW,237,3.5,3.5,74,0.00,CLR,,0.03,WeatherDisplay:10.37,2013-01-26 04:50:00,
2013-01-25 20:55:00,42.2,34.5,29.91,WSW,237,1.1,1.1,74,0.00,CLR,,0.03,WeatherDisplay:10.37,2013-01-26 04:55:00,
2013-01-25 21:00:00,41.4,33.7,29.92,West,265,3.0,7.0,74,0.00,CLR,,0.03,WeatherDisplay:10.37,2013-01-26 05:00:00,
2013-01-25 21:01:00,41.1,34.1,29.92,West,261,4.6,4.6,76,0.00,CLR,,0.03,WeatherDisplay:10.37,2013-01-26 05:01:00,
2013-01-25 21:05:00,40.9,34.2,29.91,WSW,253,6.0,6.0,77,0.00,CLR,,0.03,WeatherDisplay:10.37,2013-01-26 05:05:00,
2013-01-25 21:10:00,40.9,34.9,29.91,WSW,253,7.0,7.0,79,0.00,CLR,,0.03,WeatherDisplay:10.37,2013-01-26 05:10:00,
2013-01-25 21:15:00,40.9,35.2,29.91,WSW,239,8.1,8.1,80,0.00,CLR,,0.03,WeatherDisplay:10.37,2013-01-26 05:15:00,
2013-01-25 21:20:00,41.1,35.4,29.91,WSW,251,5.8,5.8,80,0.00,CLR,,0.03,WeatherDisplay:10.37,2013-01-26 05:20:00,
2013-01-25 21:25:00,41.1,35.4,29.91,WSW,256,7.0,7.0,80,0.00,CLR,,0.03,WeatherDisplay:10.37,2013-01-26 05:25:00,
2013-01-25 21:30:00,41.2,35.8,29.91,WSW,253,5.8,5.8,81,0.00,CLR,,0.03,WeatherDisplay:10.37,2013-01-26 05:30:00,
2013-01-25 21:35:00,41.3,35.9,29.91,West,277,7.0,7.0,81,0.00,CLR,,0.03,WeatherDisplay:10.37,2013-01-26 05:35:00,
2013-01-25 21:40:00,41.2,35.8,29.91,WNW,295,6.0,6.0,81,0.00,CLR,,0.03,WeatherDisplay:10.37,2013-01-26 05:40:00,
2013-01-25 21:45:00,41.2,35.8,29.91,WNW,294,3.5,3.5,81,0.00,CLR,,0.03,WeatherDisplay:10.37,2013-01-26 05:45:00,
2013-01-25 21:50:00,41.1,36.0,29.91,WNW,289,3.5,3.5,82,0.00,CLR,,0.03,WeatherDisplay:10.37,2013-01-26 05:50:00,
2013-01-25 21:55:00,41.1,36.0,29.91,NNW,332,3.5,3.5,82,0.00,CLR,,0.03,WeatherDisplay:10.37,2013-01-26 05:55:00,
2013-01-25 22:00:00,40.9,36.1,29.91,WNW,298,3.5,3.5,83,0.00,CLR,,0.03,WeatherDisplay:10.37,2013-01-26 06:00:00,
2013-01-25 22:05:00,40.8,36.0,29.91,WNW,298,1.1,1.1,83,0.00,CLR,,0.03,WeatherDisplay:10.37,2013-01-26 06:05:00,
2013-01-25 22:10:00,40.6,35.8,29.91,North,353,2.3,2.3,83,0.00,CLR,,0.03,WeatherDisplay:10.37,2013-01-26 06:10:00,
2013-01-25 22:15:00,40.5,36.0,29.92,NW,311,2.3,2.3,84,0.00,CLR,,0.03,WeatherDisplay:10.37,2013-01-26 06:15:00,
2013-01-25 22:20:00,40.5,36.0,29.92,NNW,335,3.0,3.0,84,0.00,CLR,,0.03,WeatherDisplay:10.37,2013-01-26 06:20:00,
2013-01-25 22:25:00,40.3,36.1,29.92,North,0,2.3,2.3,85,0.00,CLR,,0.03,WeatherDisplay:10.37,2013-01-26 06:25:00,
2013-01-25 22:30:00,40.2,35.8,29.91,North,0,2.3,0.0,84,0.00,CLR,,0.03,WeatherDisplay:10.37,2013-01-26 06:30:00,
2013-01-25 22:35:00,40.1,35.7,29.92,North,0,2.3,2.3,84,0.00,CLR,,0.03,WeatherDisplay:10.37,2013-01-26 06:35:00,
2013-01-25 22:40:00,39.9,35.5,29.91,North,0,1.1,1.1,84,0.00,CLR,,0.03,WeatherDisplay:10.37,2013-01-26 06:40:00,
2013-01-25 22:45:00,39.6,35.2,29.92,NE,40,2.3,2.3,84,0.00,CLR,,0.03,WeatherDisplay:10.37,2013-01-26 06:45:00,
2013-01-25 22:50:00,39.6,35.2,29.92,NE,40,0.0,0.1,84,0.00,CLR,,0.03,WeatherDisplay:10.37,2013-01-26 06:50:00,
2013-01-25 22:55:00,39.5,35.1,29.92,NE,40,1.0,0.0,84,0.00,CLR,,0.03,WeatherDisplay:10.37,2013-01-26 06:55:00,
2013-01-25 23:00:00,39.3,35.2,29.93,NE,40,0.0,0.0,85,0.00,CLR,,0.03,WeatherDisplay:10.37,2013-01-26 07:00:00,
2013-01-25 23:05:00,39.3,35.2,29.92,NE,40,2.3,2.3,85,0.00,CLR,,0.03,WeatherDisplay:10.37,2013-01-26 07:05:00,
2013-01-25 23:10:00,39.2,35.1,29.92,NE,40,0.0,0.0,85,0.00,CLR,,0.03,WeatherDisplay:10.37,2013-01-26 07:10:00,
2013-01-25 23:15:00,39.1,34.7,29.92,NE,40,2.3,2.3,84,0.00,CLR,,0.03,WeatherDisplay:10.37,2013-01-26 07:15:00,
2013-01-25 23:20:00,39.1,34.4,29.92,NE,37,3.5,3.5,83,0.00,CLR,,0.03,WeatherDisplay:10.37,2013-01-26 07:20:00,
2013-01-25 23:25:00,39.2,34.5,29.92,NE,37,0.0,0.0,83,0.00,CLR,,0.03,WeatherDisplay:10.37,2013-01-26 07:25:00,
2013-01-25 23:30:00,39.1,34.4,29.92,NE,37,2.0,2.0,83,0.00,CLR,,0.03,WeatherDisplay:10.37,2013-01-26 07:30:00,
2013-01-25 23:35:00,38.9,34.2,29.92,NNE,32,2.3,0.0,83,0.00,CLR,,0.03,WeatherDisplay:10.37,2013-01-26 07:35:00,
2013-01-25 23:40:00,38.8,34.1,29.92,NNE,32,1.1,0.0,83,0.00,CLR,,0.03,WeatherDisplay:10.37,2013-01-26 07:40:00,
2013-01-25 23:45:00,38.5,33.8,29.92,NNE,32,2.3,2.3,83,0.00,CLR,,0.03,WeatherDisplay:10.37,2013-01-26 07:45:00,
2013-01-25 23:50:00,38.3,33.9,29.92,NNE,32,1.0,1.0,84,0.01,RA,,0.04,WeatherDisplay:10.37,2013-01-26 07:50:00,
2013-01-25 23:55:00,38.2,33.8,29.92,NNE,32,2.3,2.3,84,0.01,RA,,0.04,WeatherDisplay:10.37,2013-01-26 07:55:00,